CYOA

Ekati Airport

Ekati, Northwest Territories, Canada
METAR CYOA 152200Z 30012KT 15SM BKN045 08/M01 A2983 RMK SC7
Observed Flight Rules
Aug-15 @ 22:00 UTC (26 minutes ago) Visual Flight Rules
Wind Visibility Clouds
300° at 12 knots 15 miles
  • Broken at 4,500' AGL
Temperatures Readings
Current 8°C / 46°F
Dewpoint -1°C / 30°F
Humidity 53%
Altimeter 29.83" Hg
Pressure 1010 hPa
Elevation 469
METAR CYOA 152200Z 30012KT 15SM BKN045 08/M01 A2983 RMK SC7
Observed Flight Rules
Aug-15 @ 22:00 UTC
(26 minutes ago)
VFR
Wind Visibility
300° at 12 knots 15 miles
Clouds
  • Broken at 4,500' AGL
Temperature Dewpoint
8°C / 46°F -1°C / 30°F
Humidity Altimeter Pressure
53% 29.83" Hg 1010 hPa